createdAt,value
2022-09-28T00:01:51.727Z,52.28
2022-09-28T00:04:18.129Z,52.47
2022-09-28T00:06:44.447Z,52.35
2022-09-28T00:09:10.762Z,52.32
2022-09-28T00:11:37.524Z,52.30
2022-09-28T00:14:03.869Z,52.45
2022-09-28T00:16:31.516Z,52.48
2022-09-28T00:18:57.882Z,52.67
2022-09-28T00:21:26.844Z,52.63
2022-09-28T00:24:12.167Z,52.57
2022-09-28T00:26:45.420Z,52.69
2022-09-28T00:29:18.885Z,52.61
2022-09-28T00:31:45.292Z,52.58
2022-09-28T00:34:11.692Z,52.55
2022-09-28T00:36:38.050Z,52.42
2022-09-28T00:39:07.698Z,52.45
2022-09-28T00:41:34.129Z,52.37
2022-09-28T00:44:19.414Z,52.56
2022-09-28T00:46:45.744Z,52.32
2022-09-28T00:49:13.097Z,52.62
2022-09-28T00:51:39.481Z,52.30
2022-09-28T00:54:05.797Z,52.50
2022-09-28T00:56:32.360Z,52.68
2022-09-28T00:58:59.594Z,52.34
2022-09-28T01:01:26.583Z,52.40
2022-09-28T01:03:54.197Z,52.50
2022-09-28T01:06:21.246Z,52.38
2022-09-28T01:08:50.387Z,52.33
2022-09-28T01:11:17.906Z,52.63
2022-09-28T01:13:44.532Z,52.41
2022-09-28T01:16:24.377Z,52.44
2022-09-28T01:19:13.159Z,52.24
2022-09-28T01:21:45.101Z,52.37
2022-09-28T01:24:14.207Z,52.95
2022-09-28T01:26:47.864Z,53.18
2022-09-28T01:29:33.426Z,52.79
2022-09-28T01:32:10.461Z,53.08
2022-09-28T01:34:37.623Z,53.08
2022-09-28T01:37:04.559Z,53.01
2022-09-28T01:39:32.377Z,52.99
2022-09-28T01:42:00.807Z,52.72
2022-09-28T01:44:27.215Z,52.61
2022-09-28T01:46:53.757Z,52.55
2022-09-28T01:49:21.253Z,52.75
2022-09-28T01:51:52.428Z,52.68
2022-09-28T01:54:20.191Z,52.71
2022-09-28T01:56:50.466Z,52.39
2022-09-28T01:59:20.394Z,52.42
2022-09-28T02:01:46.758Z,52.36
2022-09-28T02:04:16.882Z,52.34
2022-09-28T02:06:48.955Z,52.40
2022-09-28T02:09:20.058Z,52.39
2022-09-28T02:11:47.990Z,52.33
2022-09-28T02:14:14.537Z,52.29
2022-09-28T02:16:42.568Z,52.40
2022-09-28T02:19:11.058Z,53.05
2022-09-28T02:21:39.918Z,52.73
2022-09-28T02:24:23.345Z,52.64
2022-09-28T02:26:50.186Z,52.70
2022-09-28T02:29:16.599Z,53.24
2022-09-28T02:31:43.352Z,52.59
2022-09-28T02:34:09.876Z,52.62
2022-09-28T02:36:36.271Z,52.74
2022-09-28T02:39:02.596Z,53.13
2022-09-28T02:41:32.956Z,53.44
2022-09-28T02:44:03.315Z,53.60
2022-09-28T02:46:30.413Z,53.63
2022-09-28T02:49:24.466Z,53.37
2022-09-28T02:51:59.361Z,52.66
2022-09-28T02:54:54.985Z,52.77
2022-09-28T02:57:26.014Z,52.91
2022-09-28T02:59:52.286Z,52.74
2022-09-28T03:02:29.293Z,52.53
2022-09-28T03:05:01.502Z,52.45
2022-09-28T03:07:32.835Z,52.53
2022-09-28T03:10:13.912Z,52.23
2022-09-28T03:12:40.336Z,52.33
2022-09-28T03:15:11.114Z,52.53
2022-09-28T03:17:37.977Z,52.57
2022-09-28T03:20:04.607Z,52.82
2022-09-28T03:22:30.939Z,52.64
2022-09-28T03:24:57.294Z,52.78
2022-09-28T03:27:23.732Z,52.67
2022-09-28T03:29:50.150Z,52.43
2022-09-28T03:32:16.684Z,52.58
2022-09-28T03:34:43.207Z,52.44
2022-09-28T03:37:12.225Z,52.47
2022-09-28T03:39:39.456Z,52.74
2022-09-28T03:42:05.807Z,52.68
2022-09-28T03:44:34.978Z,52.49
2022-09-28T03:47:01.337Z,52.39
2022-09-28T03:49:27.671Z,52.44
2022-09-28T03:51:53.985Z,52.19
2022-09-28T03:54:20.318Z,52.19
2022-09-28T03:56:46.642Z,52.08
2022-09-28T03:59:13.082Z,52.08
2022-09-28T04:01:39.597Z,51.97
2022-09-28T04:04:06.030Z,51.60
2022-09-28T04:06:32.542Z,51.33
2022-09-28T04:08:59.017Z,51.28
2022-09-28T04:11:25.422Z,51.38
2022-09-28T04:13:51.898Z,51.36
2022-09-28T04:16:18.920Z,51.39
2022-09-28T04:18:55.582Z,51.53
2022-09-28T04:21:45.157Z,51.60
2022-09-28T04:24:14.378Z,51.37
2022-09-28T04:26:40.759Z,51.50
2022-09-28T04:29:15.920Z,51.41
2022-09-28T04:32:02.580Z,51.21
2022-09-28T04:34:37.891Z,51.06
2022-09-28T04:37:06.090Z,51.20
2022-09-28T04:39:32.482Z,51.04
2022-09-28T04:41:58.950Z,51.05
2022-09-28T04:44:26.977Z,50.78
2022-09-28T04:47:02.867Z,50.40
2022-09-28T04:49:31.218Z,50.19
2022-09-28T04:52:08.914Z,50.08
2022-09-28T04:54:35.290Z,50.21
2022-09-28T04:57:03.269Z,50.41
2022-09-28T04:59:29.608Z,50.74
2022-09-28T05:01:56.007Z,51.55
2022-09-28T05:05:00.909Z,52.08
2022-09-28T05:07:45.937Z,51.57
2022-09-28T05:10:12.257Z,52.93
2022-09-28T05:12:39.586Z,52.37
2022-09-28T05:15:06.021Z,52.16
2022-09-28T05:17:32.375Z,51.95
2022-09-28T05:20:17.271Z,51.62
2022-09-28T05:22:43.679Z,51.15
2022-09-28T05:25:10.069Z,50.99
2022-09-28T05:27:55.710Z,51.04
2022-09-28T05:30:34.276Z,50.79
2022-09-28T05:33:36.295Z,51.26
2022-09-28T05:36:10.825Z,51.52
2022-09-28T05:38:37.366Z,51.40
2022-09-28T05:41:06.571Z,52.61
2022-09-28T05:43:33.352Z,51.72
2022-09-28T05:46:00.157Z,51.99
2022-09-28T05:48:27.567Z,51.76
2022-09-28T05:50:54.050Z,51.72
2022-09-28T05:53:20.472Z,51.88
2022-09-28T05:55:46.835Z,51.78
2022-09-28T05:58:13.162Z,51.00
2022-09-28T06:00:39.537Z,51.08
2022-09-28T06:03:09.220Z,51.18
2022-09-28T06:05:36.215Z,51.33
2022-09-28T06:08:04.240Z,51.51
2022-09-28T06:10:31.172Z,51.63
2022-09-28T06:13:00.229Z,51.26
2022-09-28T06:15:27.629Z,51.09
2022-09-28T06:17:58.655Z,51.08
2022-09-28T06:20:37.794Z,50.75
2022-09-28T06:23:14.887Z,50.50
2022-09-28T06:25:41.230Z,49.95
2022-09-28T06:28:09.638Z,49.82
2022-09-28T06:30:38.077Z,50.32
2022-09-28T06:33:08.059Z,50.26
2022-09-28T06:35:35.945Z,50.50
2022-09-28T06:38:02.339Z,50.39
2022-09-28T06:40:29.432Z,50.81
2022-09-28T06:42:56.458Z,51.05
2022-09-28T06:45:42.856Z,51.67
2022-09-28T06:48:33.439Z,51.99
2022-09-28T06:51:00.315Z,51.65
2022-09-28T06:53:33.004Z,51.76
2022-09-28T06:56:10.306Z,52.13
2022-09-28T06:58:36.661Z,51.98
2022-09-28T07:01:03.513Z,52.09
2022-09-28T07:03:40.535Z,52.31
2022-09-28T07:06:23.987Z,52.31
2022-09-28T07:09:27.899Z,52.37
2022-09-28T07:12:10.085Z,52.91
2022-09-28T07:14:49.628Z,52.82
2022-09-28T07:17:16.201Z,53.13
2022-09-28T07:19:44.400Z,53.16
2022-09-28T07:22:18.504Z,53.40
2022-09-28T07:24:45.891Z,53.46
2022-09-28T07:27:31.188Z,52.90
2022-09-28T07:30:16.208Z,51.74
2022-09-28T07:32:57.723Z,51.15
2022-09-28T07:35:50.402Z,50.83
2022-09-28T07:38:16.834Z,50.85
2022-09-28T07:41:01.874Z,50.86
2022-09-28T07:43:28.268Z,50.90
2022-09-28T07:45:54.804Z,51.12
2022-09-28T07:48:21.470Z,51.44
2022-09-28T07:51:08.492Z,51.68
2022-09-28T07:53:40.139Z,51.74
2022-09-28T07:56:30.906Z,51.77
2022-09-28T07:59:03.376Z,51.71
2022-09-28T08:01:38.788Z,51.74
2022-09-28T08:04:06.198Z,52.06
2022-09-28T08:06:34.253Z,51.86
2022-09-28T08:09:02.042Z,51.95
2022-09-28T08:11:49.703Z,52.44
2022-09-28T08:14:39.265Z,52.55
2022-09-28T08:17:26.544Z,51.91
2022-09-28T08:20:14.725Z,52.49
2022-09-28T08:22:41.704Z,54.36
2022-09-28T08:25:08.594Z,53.63
2022-09-28T08:27:34.958Z,53.71
2022-09-28T08:30:01.473Z,53.85
2022-09-28T08:32:51.161Z,54.03
2022-09-28T08:35:35.941Z,54.11
2022-09-28T08:38:13.130Z,54.62
2022-09-28T08:41:36.670Z,55.35
2022-09-28T08:44:24.155Z,55.97
2022-09-28T08:47:46.234Z,55.88
2022-09-28T08:50:24.202Z,55.59
2022-09-28T08:53:05.887Z,56.12
2022-09-28T08:55:49.822Z,55.99
2022-09-28T08:58:30.332Z,56.03
2022-09-28T09:00:58.454Z,57.17
2022-09-28T09:03:29.061Z,55.60
2022-09-28T09:06:19.146Z,55.84
2022-09-28T09:09:07.295Z,54.97
2022-09-28T09:11:34.383Z,53.77
2022-09-28T09:14:00.752Z,53.82
2022-09-28T09:16:44.090Z,52.99
2022-09-28T09:19:54.197Z,52.41
2022-09-28T09:22:59.798Z,52.36
2022-09-28T09:25:38.385Z,50.11
2022-09-28T09:28:11.550Z,48.65
2022-09-28T09:30:50.589Z,48.73
2022-09-28T09:33:27.769Z,48.65
2022-09-28T09:36:34.483Z,49.59
2022-09-28T09:39:35.610Z,50.82
2022-09-28T09:42:29.654Z,50.52
2022-09-28T09:45:35.780Z,50.28
2022-09-28T09:48:27.439Z,49.29
2022-09-28T09:50:55.334Z,49.35
2022-09-28T09:53:21.931Z,49.13
2022-09-28T09:55:50.358Z,49.43
2022-09-28T09:58:26.761Z,48.94
2022-09-28T10:01:08.005Z,48.62
2022-09-28T10:03:53.176Z,48.38
2022-09-28T10:06:22.354Z,48.31
2022-09-28T10:08:49.317Z,48.34
2022-09-28T10:11:18.887Z,48.97
2022-09-28T10:13:50.242Z,49.33
2022-09-28T10:16:37.206Z,49.85
2022-09-28T10:19:09.992Z,49.95
2022-09-28T10:22:03.302Z,49.63
2022-09-28T10:24:31.281Z,49.49
2022-09-28T10:26:59.035Z,50.49
2022-09-28T10:29:25.869Z,50.50
2022-09-28T10:31:52.655Z,50.38
2022-09-28T10:34:35.475Z,49.81
2022-09-28T10:37:09.705Z,49.73
2022-09-28T10:39:53.606Z,50.37
2022-09-28T10:42:21.437Z,50.38
2022-09-28T10:44:55.240Z,50.36
2022-09-28T10:47:32.720Z,50.55
2022-09-28T10:49:59.102Z,51.25
2022-09-28T10:52:43.042Z,50.90
2022-09-28T10:55:20.514Z,50.88
2022-09-28T10:57:47.113Z,51.01
2022-09-28T11:00:31.948Z,51.18
2022-09-28T11:03:22.564Z,50.66
2022-09-28T11:06:01.571Z,50.81
2022-09-28T11:08:48.136Z,51.10
2022-09-28T11:11:19.824Z,51.57
2022-09-28T11:13:51.447Z,51.62
2022-09-28T11:16:23.805Z,52.01
2022-09-28T11:18:50.227Z,52.42
2022-09-28T11:21:17.829Z,52.36
2022-09-28T11:24:01.361Z,52.65
2022-09-28T11:26:34.258Z,52.86
2022-09-28T11:29:00.593Z,52.91
2022-09-28T11:31:39.690Z,52.96
2022-09-28T11:34:27.770Z,52.90
2022-09-28T11:37:32.827Z,52.78
2022-09-28T11:40:17.810Z,52.96
2022-09-28T11:42:44.188Z,53.01
2022-09-28T11:45:18.105Z,53.04
2022-09-28T11:47:53.490Z,53.29
2022-09-28T11:50:38.437Z,53.40
2022-09-28T11:53:23.432Z,53.45
2022-09-28T11:55:57.328Z,53.58
2022-09-28T11:58:31.125Z,53.68
2022-09-28T12:01:04.535Z,53.52
2022-09-28T12:03:51.063Z,53.65
2022-09-28T12:06:23.276Z,53.65
2022-09-28T12:08:53.471Z,53.70
2022-09-28T12:11:43.509Z,53.56
2022-09-28T12:14:20.303Z,53.68
2022-09-28T12:17:05.289Z,53.70
2022-09-28T12:19:34.787Z,53.67
2022-09-28T12:22:03.532Z,53.61
2022-09-28T12:24:49.214Z,53.64
2022-09-28T12:27:27.841Z,54.00
2022-09-28T12:30:12.865Z,53.69
2022-09-28T12:32:41.635Z,53.98
2022-09-28T12:35:15.111Z,53.71
2022-09-28T12:38:01.656Z,53.87
2022-09-28T12:40:38.130Z,53.80
2022-09-28T12:43:23.316Z,54.08
2022-09-28T12:46:11.105Z,54.14
2022-09-28T12:48:52.980Z,54.01
2022-09-28T12:51:42.925Z,54.21
2022-09-28T12:54:17.471Z,54.19
2022-09-28T12:56:52.670Z,54.36
2022-09-28T12:59:29.697Z,54.33
2022-09-28T13:02:01.769Z,54.03
2022-09-28T13:04:36.873Z,54.31
2022-09-28T13:07:06.594Z,54.35
2022-09-28T13:09:47.043Z,54.03
2022-09-28T13:12:24.960Z,53.96
2022-09-28T13:15:04.895Z,54.27
2022-09-28T13:17:33.899Z,53.99
2022-09-28T13:20:18.658Z,54.20
2022-09-28T13:22:49.594Z,54.06
2022-09-28T13:25:19.043Z,54.38
2022-09-28T13:27:46.334Z,54.32
2022-09-28T13:30:13.267Z,54.12
2022-09-28T13:32:39.627Z,54.27
2022-09-28T13:35:06.289Z,54.21
2022-09-28T13:37:33.506Z,54.19
2022-09-28T13:40:05.724Z,54.14
2022-09-28T13:42:47.451Z,54.17
2022-09-28T13:45:22.638Z,54.29
2022-09-28T13:47:56.833Z,54.17
2022-09-28T13:51:01.590Z,54.63
2022-09-28T13:53:46.535Z,54.36
2022-09-28T13:56:28.189Z,54.40
2022-09-28T13:59:10.185Z,54.52
2022-09-28T14:01:37.676Z,54.36
2022-09-28T14:04:11.599Z,54.47
2022-09-28T14:06:37.949Z,54.50
2022-09-28T14:09:07.197Z,54.49
2022-09-28T14:11:36.751Z,54.48
2022-09-28T14:14:11.753Z,54.81
2022-09-28T14:16:38.398Z,54.40
2022-09-28T14:19:07.140Z,54.46
2022-09-28T14:21:51.986Z,54.70
2022-09-28T14:24:27.389Z,54.64
2022-09-28T14:27:12.591Z,54.55
2022-09-28T14:29:38.901Z,54.78
2022-09-28T14:32:05.766Z,54.55
2022-09-28T14:34:45.070Z,54.79
2022-09-28T14:37:49.273Z,54.66
2022-09-28T14:40:44.724Z,55.01
2022-09-28T14:43:20.654Z,55.09
2022-09-28T14:45:47.108Z,54.80
2022-09-28T14:48:14.182Z,55.37
2022-09-28T14:50:40.519Z,54.87
2022-09-28T14:53:10.237Z,55.26
2022-09-28T14:55:50.205Z,55.18
2022-09-28T14:58:27.446Z,55.77
2022-09-28T15:00:56.127Z,54.96
2022-09-28T15:03:22.452Z,54.90
2022-09-28T15:05:49.314Z,55.17
2022-09-28T15:08:17.316Z,55.27
2022-09-28T15:10:47.027Z,55.44
2022-09-28T15:13:25.944Z,54.97
2022-09-28T15:15:57.237Z,55.38
2022-09-28T15:18:43.810Z,55.59
2022-09-28T15:21:10.544Z,55.68
2022-09-28T15:23:37.558Z,55.17
2022-09-28T15:26:04.109Z,55.79
2022-09-28T15:28:30.674Z,53.17
2022-09-28T15:30:58.887Z,53.93
2022-09-28T15:33:48.549Z,54.51
2022-09-28T15:36:19.874Z,54.20
2022-09-28T15:38:47.933Z,54.07
2022-09-28T15:41:14.249Z,54.36
2022-09-28T15:43:41.399Z,54.46
2022-09-28T15:46:13.995Z,54.49
2022-09-28T15:48:53.345Z,54.41
2022-09-28T15:51:19.993Z,54.27
2022-09-28T15:53:47.497Z,54.29
2022-09-28T15:56:13.847Z,54.53
2022-09-28T15:58:40.177Z,54.29
2022-09-28T16:01:23.569Z,54.37
2022-09-28T16:03:49.893Z,54.54
2022-09-28T16:06:16.197Z,54.51
2022-09-28T16:08:43.058Z,54.53
2022-09-28T16:11:13.236Z,54.61
2022-09-28T16:13:52.856Z,54.74
2022-09-28T16:16:19.253Z,54.47
2022-09-28T16:18:48.394Z,54.72
2022-09-28T16:21:29.256Z,54.60
2022-09-28T16:23:58.517Z,54.61
2022-09-28T16:26:28.313Z,54.60
2022-09-28T16:28:54.621Z,54.89
2022-09-28T16:31:29.157Z,54.67
2022-09-28T16:34:14.485Z,54.87
2022-09-28T16:36:43.408Z,54.68
2022-09-28T16:39:11.633Z,55.04
2022-09-28T16:41:39.913Z,55.32
2022-09-28T16:44:09.198Z,54.84
2022-09-28T16:46:37.326Z,54.78
2022-09-28T16:49:05.698Z,55.06
2022-09-28T16:51:32.522Z,54.84
2022-09-28T16:54:37.782Z,54.75
2022-09-28T16:57:04.541Z,55.12
2022-09-28T16:59:30.911Z,55.21
2022-09-28T17:01:57.386Z,55.54
2022-09-28T17:04:24.136Z,55.44
2022-09-28T17:06:51.021Z,56.10
2022-09-28T17:09:17.537Z,56.32
2022-09-28T17:11:44.505Z,56.07
2022-09-28T17:14:11.667Z,56.06
2022-09-28T17:19:26.780Z,55.84
2022-09-28T17:21:53.201Z,56.00
2022-09-28T17:24:19.589Z,56.39
2022-09-28T17:26:46.455Z,55.85
2022-09-28T17:29:14.368Z,55.30
2022-09-28T17:31:41.546Z,55.67
2022-09-28T17:34:07.907Z,56.55
2022-09-28T17:36:34.209Z,56.15
2022-09-28T17:39:00.635Z,56.72
2022-09-28T17:41:26.961Z,57.18
2022-09-28T17:43:53.269Z,56.70
2022-09-28T17:46:40.462Z,56.06
2022-09-28T17:49:07.271Z,55.46
2022-09-28T17:51:34.727Z,54.98
2022-09-28T17:54:01.168Z,54.26
2022-09-28T17:56:31.884Z,55.18
2022-09-28T17:59:00.002Z,54.71
2022-09-28T18:01:30.064Z,54.40
2022-09-28T18:03:57.302Z,53.52
2022-09-28T18:06:23.742Z,53.37
2022-09-28T18:08:50.133Z,53.39
2022-09-28T18:11:17.351Z,53.77
2022-09-28T18:13:45.883Z,54.09
2022-09-28T18:16:12.886Z,53.94
2022-09-28T18:18:39.881Z,53.91
2022-09-28T18:21:06.706Z,54.48
2022-09-28T18:23:36.867Z,53.92
2022-09-28T18:26:03.257Z,51.75
2022-09-28T18:28:29.638Z,51.42
2022-09-28T18:30:56.007Z,51.01
2022-09-28T18:33:22.413Z,52.00
2022-09-28T18:35:54.887Z,53.27
2022-09-28T18:38:21.271Z,53.47
2022-09-28T18:40:48.275Z,54.40
2022-09-28T18:43:14.882Z,54.68
2022-09-28T18:45:41.213Z,54.26
2022-09-28T18:48:07.698Z,54.55
2022-09-28T18:50:35.122Z,54.61
2022-09-28T18:53:11.872Z,55.30
2022-09-28T18:55:39.791Z,55.26
2022-09-28T18:58:06.938Z,55.45
2022-09-28T19:00:33.379Z,55.32
2022-09-28T19:03:01.926Z,55.67
2022-09-28T19:05:28.354Z,55.61
2022-09-28T19:07:55.055Z,55.40
2022-09-28T19:10:21.362Z,55.72
2022-09-28T19:12:47.864Z,55.78
2022-09-28T19:15:14.433Z,55.98
2022-09-28T19:17:40.750Z,56.24
2022-09-28T19:20:07.146Z,55.87
2022-09-28T19:22:33.493Z,55.86
2022-09-28T19:24:59.812Z,55.54
2022-09-28T19:27:26.131Z,55.84
2022-09-28T19:29:52.459Z,56.18
2022-09-28T19:32:18.812Z,56.29
2022-09-28T19:34:45.149Z,56.25
2022-09-28T19:37:11.510Z,56.55
2022-09-28T19:39:37.814Z,56.91
2022-09-28T19:42:04.186Z,56.64
2022-09-28T19:44:30.891Z,56.77
2022-09-28T19:46:58.059Z,56.70
2022-09-28T19:49:24.668Z,56.58
2022-09-28T19:52:11.557Z,56.81
2022-09-28T19:54:38.677Z,56.42
2022-09-28T19:57:08.568Z,56.81
2022-09-28T19:59:36.426Z,56.54
2022-09-28T20:02:03.344Z,56.98
2022-09-28T20:04:29.939Z,57.06
2022-09-28T20:06:56.283Z,56.98
2022-09-28T20:09:22.598Z,56.89
2022-09-28T20:11:48.918Z,56.80
2022-09-28T20:14:16.058Z,56.72
2022-09-28T20:16:42.381Z,56.70
2022-09-28T20:19:08.705Z,56.68
2022-09-28T20:21:35.075Z,56.89
2022-09-28T20:24:01.715Z,56.84
2022-09-28T20:26:28.069Z,56.72
2022-09-28T20:28:54.381Z,56.68
2022-09-28T20:31:21.683Z,56.79
2022-09-28T20:33:48.081Z,56.87
2022-09-28T20:36:18.038Z,56.95
2022-09-28T20:38:44.850Z,56.69
2022-09-28T20:41:11.253Z,56.63
2022-09-28T20:43:37.823Z,56.66
2022-09-28T20:46:04.659Z,57.06
2022-09-28T20:48:31.045Z,56.83
2022-09-28T20:51:04.344Z,56.64
2022-09-28T20:53:31.022Z,56.90
2022-09-28T20:55:58.038Z,56.80
2022-09-28T20:58:24.361Z,57.10
2022-09-28T21:00:50.665Z,57.03
2022-09-28T21:03:17.970Z,56.99
2022-09-28T21:05:44.289Z,56.88
2022-09-28T21:08:10.602Z,56.72
2022-09-28T21:10:36.979Z,57.12
2022-09-28T21:13:03.350Z,57.10
2022-09-28T21:15:29.720Z,56.98
2022-09-28T21:17:56.086Z,57.07
2022-09-28T21:20:22.410Z,57.09
2022-09-28T21:22:48.729Z,57.00
2022-09-28T21:25:15.063Z,56.72
2022-09-28T21:27:41.438Z,56.85
2022-09-28T21:30:09.154Z,56.78
2022-09-28T21:32:35.529Z,56.89
2022-09-28T21:35:01.842Z,57.22
2022-09-28T21:37:28.166Z,57.01
2022-09-28T21:39:54.480Z,57.26
2022-09-28T21:42:20.805Z,57.39
2022-09-28T21:44:47.135Z,57.22
2022-09-28T21:47:13.479Z,57.24
2022-09-28T21:49:39.786Z,56.90
2022-09-28T21:52:06.100Z,56.76
2022-09-28T21:54:33.596Z,56.72
2022-09-28T21:57:01.327Z,56.80
2022-09-28T21:59:27.633Z,56.61
2022-09-28T22:01:54.013Z,56.65
2022-09-28T22:04:20.520Z,56.48
2022-09-28T22:06:47.035Z,56.45
2022-09-28T22:09:13.336Z,56.37
2022-09-28T22:11:39.780Z,56.35
2022-09-28T22:14:06.137Z,56.36
2022-09-28T22:16:32.765Z,56.45
2022-09-28T22:18:59.193Z,56.13
2022-09-28T22:21:28.628Z,56.34
2022-09-28T22:23:57.902Z,56.32
2022-09-28T22:26:24.778Z,56.09
2022-09-28T22:28:54.991Z,56.12
2022-09-28T22:31:22.320Z,56.19
2022-09-28T22:33:48.666Z,56.33
2022-09-28T22:36:16.585Z,56.14
2022-09-28T22:38:43.303Z,56.32
2022-09-28T22:41:09.627Z,55.91
2022-09-28T22:43:35.950Z,56.17
2022-09-28T22:46:03.399Z,56.00
2022-09-28T22:48:29.866Z,56.02
2022-09-28T22:50:56.212Z,55.91
2022-09-28T22:53:22.554Z,55.81
2022-09-28T22:55:48.870Z,55.93
2022-09-28T22:58:15.210Z,55.87
2022-09-28T23:00:41.553Z,55.55
2022-09-28T23:03:07.968Z,55.67
2022-09-28T23:05:34.359Z,55.66
2022-09-28T23:08:00.739Z,55.51
2022-09-28T23:10:27.155Z,55.44
2022-09-28T23:12:53.734Z,55.56
2022-09-28T23:15:21.578Z,55.41
2022-09-28T23:17:51.641Z,55.24
2022-09-28T23:20:18.034Z,55.17
2022-09-28T23:22:47.876Z,55.05
2022-09-28T23:25:14.520Z,55.23
2022-09-28T23:27:44.200Z,54.99
2022-09-28T23:30:10.532Z,54.95
2022-09-28T23:32:36.916Z,54.89
2022-09-28T23:35:03.263Z,55.10
2022-09-28T23:37:29.603Z,54.90
2022-09-28T23:39:55.951Z,54.84
2022-09-28T23:42:22.265Z,54.89
2022-09-28T23:44:48.569Z,54.88
2022-09-28T23:47:14.889Z,54.76
2022-09-28T23:49:41.193Z,54.78
2022-09-28T23:52:07.548Z,54.69
2022-09-28T23:54:33.889Z,54.81
2022-09-28T23:57:00.205Z,54.61
2022-09-28T23:59:26.505Z,54.88
